createdAt,value
2023-09-12T00:02:25.192Z,13.70
2023-09-12T00:07:27.842Z,13.40
2023-09-12T00:12:30.494Z,13.90
2023-09-12T00:17:33.114Z,13.20
2023-09-12T00:22:35.711Z,14.80
2023-09-12T00:27:38.216Z,15.10
2023-09-12T00:32:41.006Z,15.00
2023-09-12T00:37:43.572Z,15.80
2023-09-12T00:42:46.374Z,16.40
2023-09-12T00:47:49.862Z,16.20
2023-09-12T00:52:54.648Z,17.40
2023-09-12T00:57:57.293Z,15.90
2023-09-12T01:03:00.007Z,17.20
2023-09-12T01:08:03.137Z,16.50
2023-09-12T01:13:06.745Z,15.60
2023-09-12T01:18:09.547Z,15.60
2023-09-12T01:23:22.295Z,16.00
2023-09-12T01:28:26.592Z,15.00
2023-09-12T01:33:29.872Z,14.70
2023-09-12T01:38:32.442Z,13.90
2023-09-12T01:43:37.937Z,13.90
2023-09-12T01:48:41.818Z,13.90
2023-09-12T01:53:46.586Z,13.30
2023-09-12T01:58:49.095Z,13.20
2023-09-12T02:03:51.872Z,12.70
2023-09-12T02:08:54.505Z,12.50
2023-09-12T02:13:57.093Z,13.00
2023-09-12T02:18:59.646Z,12.00
2023-09-12T02:24:02.433Z,12.80
2023-09-12T02:29:07.190Z,12.70
2023-09-12T02:34:09.797Z,11.80
2023-09-12T02:39:12.438Z,12.20
2023-09-12T02:44:15.406Z,12.30
2023-09-12T02:49:17.960Z,11.70
2023-09-12T02:54:20.518Z,12.00
2023-09-12T02:59:23.099Z,11.80
2023-09-12T03:04:29.724Z,11.80
2023-09-12T03:09:32.428Z,11.20
2023-09-12T03:14:35.119Z,10.20
2023-09-12T03:19:37.745Z,10.90
2023-09-12T03:24:40.628Z,10.40
2023-09-12T03:29:43.395Z,11.80
2023-09-12T03:34:48.783Z,11.40
2023-09-12T03:39:51.288Z,11.30
2023-09-12T03:44:53.796Z,11.30
2023-09-12T03:49:56.315Z,11.80
2023-09-12T03:55:01.815Z,11.60
2023-09-12T04:00:08.720Z,13.20
2023-09-12T04:05:11.491Z,11.90
2023-09-12T04:10:14.758Z,11.70
2023-09-12T04:15:17.781Z,10.90
2023-09-12T04:20:20.626Z,10.60
2023-09-12T04:25:23.177Z,11.10
2023-09-12T04:30:26.430Z,10.30
2023-09-12T04:35:29.191Z,10.40
2023-09-12T04:40:32.378Z,10.30
2023-09-12T04:45:35.356Z,11.00
2023-09-12T04:50:44.173Z,10.20
2023-09-12T04:55:46.737Z,10.20
2023-09-12T05:00:49.318Z,10.70
2023-09-12T05:05:51.958Z,10.90
2023-09-12T05:10:54.525Z,11.30
2023-09-12T05:16:00.497Z,11.20
2023-09-12T05:21:03.821Z,13.40
2023-09-12T05:26:07.259Z,10.50
2023-09-12T05:31:10.026Z,11.20
2023-09-12T05:36:12.829Z,12.00
2023-09-12T05:41:15.404Z,10.30
2023-09-12T05:46:18.044Z,11.30
2023-09-12T05:51:20.711Z,10.00
2023-09-12T05:56:23.293Z,10.10
2023-09-12T06:01:25.873Z,10.00
2023-09-12T06:06:29.086Z,10.30
2023-09-12T06:11:32.500Z,9.30
2023-09-12T06:16:35.129Z,9.20
2023-09-12T06:21:37.802Z,9.50
2023-09-12T06:26:41.775Z,8.60
2023-09-12T06:31:47.603Z,10.10
2023-09-12T06:36:50.440Z,12.80
2023-09-12T06:41:52.984Z,17.90
2023-09-12T06:46:55.646Z,16.50
2023-09-12T06:51:58.150Z,16.30
2023-09-12T06:57:00.946Z,19.10
2023-09-12T07:02:03.951Z,18.10
2023-09-12T07:07:07.039Z,18.30
2023-09-12T07:12:10.862Z,18.10
2023-09-12T07:17:14.763Z,17.00
2023-09-12T07:22:17.503Z,18.80
2023-09-12T07:27:20.163Z,19.30
2023-09-12T07:32:25.285Z,19.20
2023-09-12T07:37:27.893Z,20.30
2023-09-12T07:42:30.463Z,20.10
2023-09-12T07:47:34.056Z,21.00
2023-09-12T07:52:36.621Z,21.00
2023-09-12T07:57:39.243Z,20.00
2023-09-12T08:02:42.215Z,21.30
2023-09-12T08:07:45.305Z,20.70
2023-09-12T08:12:48.006Z,18.60
2023-09-12T08:17:53.131Z,18.50
2023-09-12T08:22:56.113Z,14.10
2023-09-12T08:27:58.716Z,12.00
2023-09-12T08:33:04.187Z,12.70
2023-09-12T08:38:07.126Z,15.00
2023-09-12T08:43:09.815Z,15.50
2023-09-12T08:48:13.888Z,15.30
2023-09-12T08:53:16.592Z,12.90
2023-09-12T08:58:19.971Z,12.80
2023-09-12T09:03:24.333Z,13.30
2023-09-12T09:08:29.217Z,11.20
2023-09-12T09:13:32.012Z,12.30
2023-09-12T09:18:53.702Z,6.70
2023-09-12T09:23:58.763Z,6.30
2023-09-12T09:29:04.414Z,6.50
2023-09-12T09:34:18.270Z,12.40
2023-09-12T09:39:32.725Z,11.70
2023-09-12T09:44:35.565Z,10.10
2023-09-12T09:49:38.351Z,9.40
2023-09-12T09:54:46.122Z,9.30
2023-09-12T09:59:52.773Z,7.90
2023-09-12T10:05:00.742Z,7.70
2023-09-12T10:10:05.165Z,8.10
2023-09-12T10:15:09.232Z,8.10
2023-09-12T10:20:17.149Z,6.20
2023-09-12T10:25:20.554Z,6.00
2023-09-12T10:30:24.330Z,6.40
2023-09-12T10:35:28.230Z,6.00
2023-09-12T10:40:33.232Z,6.60
2023-09-12T10:45:37.816Z,6.20
2023-09-12T10:50:41.451Z,5.50
2023-09-12T10:56:00.189Z,5.90
2023-09-12T11:01:34.668Z,5.90
2023-09-12T11:06:37.345Z,6.00
2023-09-12T11:11:40.953Z,6.00
2023-09-12T11:16:44.932Z,5.80
2023-09-12T11:21:50.111Z,6.50
2023-09-12T11:27:01.416Z,5.50
2023-09-12T11:32:06.637Z,6.10
2023-09-12T11:37:10.423Z,6.20
2023-09-12T11:42:15.054Z,6.00
2023-09-12T11:47:18.896Z,6.10
2023-09-12T11:52:24.947Z,6.10
2023-09-12T11:57:28.934Z,6.40
2023-09-12T12:02:34.633Z,6.00
2023-09-12T12:07:37.268Z,6.10
2023-09-12T12:12:41.121Z,5.90
2023-09-12T12:17:44.294Z,9.50
2023-09-12T12:22:47.089Z,6.20
2023-09-12T12:27:49.661Z,6.70
2023-09-12T12:32:52.996Z,6.40
2023-09-12T12:38:06.672Z,6.80
2023-09-12T12:43:18.606Z,6.00
2023-09-12T12:48:37.380Z,6.30
2023-09-12T12:53:52.749Z,6.40
2023-09-12T12:58:58.773Z,6.50
2023-09-12T13:04:01.414Z,6.10
2023-09-12T13:09:06.483Z,6.40
2023-09-12T13:14:12.973Z,6.20
2023-09-12T13:19:15.878Z,6.50
2023-09-12T13:24:18.388Z,6.40
2023-09-12T13:29:21.052Z,6.10
2023-09-12T13:34:23.905Z,6.30
2023-09-12T13:39:26.532Z,6.70
2023-09-12T13:44:29.176Z,6.00
2023-09-12T13:49:31.747Z,6.10
2023-09-12T13:54:34.429Z,6.00
2023-09-12T13:59:45.063Z,5.90
2023-09-12T14:09:53.609Z,6.20
2023-09-12T14:15:05.962Z,6.10
2023-09-12T14:20:11.599Z,7.40
2023-09-12T14:25:16.094Z,7.10
2023-09-12T14:30:21.666Z,7.30
2023-09-12T14:35:24.452Z,6.00
2023-09-12T14:40:28.389Z,5.90
2023-09-12T14:45:32.550Z,6.20
2023-09-12T14:50:42.682Z,6.50
2023-09-12T14:55:46.596Z,6.80
2023-09-12T15:00:49.292Z,5.70
2023-09-12T15:05:52.038Z,5.90
2023-09-12T15:10:54.741Z,5.90
2023-09-12T15:15:57.422Z,6.20
2023-09-12T15:21:00.383Z,6.10
2023-09-12T15:26:03.162Z,6.40
2023-09-12T15:31:05.796Z,6.60
2023-09-12T15:36:08.408Z,6.60
2023-09-12T15:41:11.488Z,6.60
2023-09-12T15:46:28.026Z,6.80
2023-09-12T15:51:35.083Z,7.20
2023-09-12T15:56:37.757Z,7.10
2023-09-12T16:01:42.164Z,7.50
2023-09-12T16:06:44.767Z,7.40
2023-09-12T16:11:47.601Z,7.90
2023-09-12T16:16:50.385Z,7.30
2023-09-12T16:21:53.163Z,7.50
2023-09-12T16:26:57.460Z,8.10
2023-09-12T16:32:02.051Z,8.00
2023-09-12T16:37:12.346Z,8.80
2023-09-12T16:42:19.047Z,8.80
2023-09-12T16:47:21.605Z,8.40
2023-09-12T16:52:25.278Z,8.70
2023-09-12T16:57:28.187Z,8.90
2023-09-12T17:02:36.090Z,9.00
2023-09-12T17:07:38.845Z,9.20
2023-09-12T17:12:42.041Z,9.10
2023-09-12T17:17:46.400Z,9.80
2023-09-12T17:22:49.644Z,10.60
2023-09-12T17:27:52.853Z,10.20
2023-09-12T17:32:55.517Z,10.00
2023-09-12T17:37:58.127Z,9.90
2023-09-12T17:43:00.679Z,9.30
2023-09-12T17:48:05.075Z,9.60
2023-09-12T17:53:08.134Z,10.30
2023-09-12T17:58:10.795Z,9.10
2023-09-12T18:03:13.626Z,9.50
2023-09-12T18:08:18.462Z,8.90
2023-09-12T18:13:21.035Z,9.00
2023-09-12T18:18:23.568Z,8.60
2023-09-12T18:23:26.208Z,9.60
2023-09-12T18:28:47.156Z,9.20
2023-09-12T18:33:49.921Z,10.20
2023-09-12T18:38:53.568Z,10.10
2023-09-12T18:43:57.272Z,10.50
2023-09-12T18:48:59.878Z,10.00
2023-09-12T18:54:02.871Z,10.10
2023-09-12T18:59:05.481Z,9.80
2023-09-12T19:04:33.285Z,10.10
2023-09-12T19:09:36.034Z,10.60
2023-09-12T19:14:38.691Z,11.00
2023-09-12T19:19:42.607Z,10.80
2023-09-12T19:24:45.374Z,11.10
2023-09-12T19:29:53.255Z,11.20
2023-09-12T19:34:55.940Z,12.00
2023-09-12T19:39:58.633Z,11.10
2023-09-12T19:45:02.317Z,11.40
2023-09-12T19:50:05.751Z,11.80
2023-09-12T19:55:08.691Z,11.00
2023-09-12T20:00:13.543Z,11.80
2023-09-12T20:05:21.440Z,11.60
2023-09-12T20:10:24.311Z,12.50
2023-09-12T20:15:26.982Z,11.80
2023-09-12T20:20:35.411Z,12.30
2023-09-12T20:25:38.099Z,11.80
2023-09-12T20:30:40.771Z,12.30
2023-09-12T20:35:43.458Z,12.30
2023-09-12T20:40:48.430Z,13.20
2023-09-12T20:45:54.295Z,13.00
2023-09-12T20:50:57.008Z,12.90
2023-09-12T20:55:59.535Z,12.70
2023-09-12T21:01:02.507Z,13.00
2023-09-12T21:06:05.204Z,13.60
2023-09-12T21:11:09.542Z,13.50
2023-09-12T21:16:13.160Z,13.60
2023-09-12T21:21:18.788Z,13.60
2023-09-12T21:26:21.504Z,13.60
2023-09-12T21:31:26.098Z,14.70
2023-09-12T21:36:42.677Z,14.00
2023-09-12T21:41:45.486Z,13.80
2023-09-12T21:46:51.825Z,13.10
2023-09-12T21:51:55.771Z,13.80
2023-09-12T21:57:00.292Z,13.50
2023-09-12T22:02:16.880Z,13.40
2023-09-12T22:07:19.572Z,13.50
2023-09-12T22:12:22.153Z,14.00
2023-09-12T22:17:32.675Z,12.70
2023-09-12T22:22:37.498Z,13.40
2023-09-12T22:27:40.903Z,14.10
2023-09-12T22:32:44.241Z,13.40
2023-09-12T22:37:47.120Z,13.40
2023-09-12T22:42:49.802Z,13.10
2023-09-12T22:47:52.406Z,13.20
2023-09-12T22:52:57.343Z,13.70
2023-09-12T22:58:00.039Z,12.80
2023-09-12T23:03:06.774Z,13.20
2023-09-12T23:08:10.205Z,13.60
2023-09-12T23:13:18.331Z,13.80
2023-09-12T23:18:22.129Z,13.20
2023-09-12T23:23:28.394Z,12.90
2023-09-12T23:28:33.026Z,13.40
2023-09-12T23:33:35.614Z,13.50
2023-09-12T23:38:39.566Z,13.40
2023-09-12T23:43:43.136Z,13.20
2023-09-12T23:48:46.155Z,13.00
2023-09-12T23:53:48.986Z,14.40
2023-09-12T23:58:52.810Z,13.60
